Terminal Aerodrome Forecast
Issued by NWS Omaha/Valley, NE

Home | Current Version | Previous Version | Graphics & Text | Print | Product List | Glossary On
Versions: 1 2 3 4 5 6 7 8 9 10 11 12 13 14 15 16 17 18 19 20 21 22 23 24 25 26 27 28 29 30 31 32 33 34 35 36 37 38
000
FTUS43 KOAX 271136
TAFOFK
TAF
KOFK 271136Z 2712/2812 07008KT 6SM -TSRA BR BKN008 OVC040CB
      TEMPO 2712/2715 3SM TSRA BR OVC008CB
     FM271600 13007KT P6SM OVC015
     FM272200 14008KT 5SM -SHRA BR OVC025
      TEMPO 2802/2806 3SM -TSRA BR OVC012CB
     FM280600 14010KT 2SM -RA BR OVC008=

USA.gov is the U.S. government's official web portal to all federal, state and local government web resources and services.